createdAt,value
2022-11-02T00:01:49.175Z,9.40
2022-11-02T00:04:17.515Z,9.50
2022-11-02T00:06:45.893Z,9.40
2022-11-02T00:09:14.155Z,9.40
2022-11-02T00:11:42.401Z,9.30
2022-11-02T00:14:12.226Z,9.30
2022-11-02T00:16:41.660Z,9.20
2022-11-02T00:19:10.676Z,9.30
2022-11-02T00:21:39.795Z,9.30
2022-11-02T00:24:09.935Z,9.30
2022-11-02T00:26:39.521Z,9.20
2022-11-02T00:29:08.803Z,9.20
2022-11-02T00:31:38.448Z,9.10
2022-11-02T00:34:25.452Z,9.10
2022-11-02T00:36:55.722Z,9.10
2022-11-02T00:39:24.015Z,9.00
2022-11-02T00:41:52.805Z,9.00
2022-11-02T00:44:21.051Z,9.00
2022-11-02T00:46:50.611Z,8.90
2022-11-02T00:49:18.878Z,8.90
2022-11-02T00:51:47.382Z,8.90
2022-11-02T00:54:15.764Z,8.80
2022-11-02T00:56:46.946Z,8.70
2022-11-02T00:59:15.467Z,8.60
2022-11-02T01:01:47.415Z,8.60
2022-11-02T01:04:18.659Z,8.60
2022-11-02T01:06:47.461Z,8.60
2022-11-02T01:09:16.587Z,8.60
2022-11-02T01:11:46.184Z,8.60
2022-11-02T01:14:38.911Z,8.60
2022-11-02T01:17:07.963Z,8.50
2022-11-02T01:20:02.520Z,8.60
2022-11-02T01:22:31.838Z,8.50
2022-11-02T01:25:00.194Z,8.50
2022-11-02T01:27:28.622Z,8.40
2022-11-02T01:29:57.177Z,8.40
2022-11-02T01:32:25.656Z,8.30
2022-11-02T01:34:54.288Z,8.30
2022-11-02T01:37:24.108Z,8.30
2022-11-02T01:39:52.344Z,8.20
2022-11-02T01:42:22.469Z,8.10
2022-11-02T01:44:57.285Z,8.20
2022-11-02T01:47:30.399Z,8.20
2022-11-02T01:50:03.617Z,8.20
2022-11-02T01:52:39.741Z,8.20
2022-11-02T01:55:13.479Z,8.20
2022-11-02T01:57:45.010Z,8.20
2022-11-02T02:00:16.478Z,8.20
2022-11-02T02:02:49.654Z,8.10
2022-11-02T02:05:19.806Z,8.10
2022-11-02T02:07:50.923Z,8.10
2022-11-02T02:10:20.160Z,8.10
2022-11-02T02:12:49.309Z,8.20
2022-11-02T02:16:07.339Z,8.20
2022-11-02T02:18:42.882Z,8.20
2022-11-02T02:21:25.060Z,8.20
2022-11-02T02:24:21.692Z,8.30
2022-11-02T02:27:06.165Z,8.30
2022-11-02T02:29:45.910Z,8.30
2022-11-02T02:32:19.970Z,8.30
2022-11-02T02:34:53.900Z,8.30
2022-11-02T02:37:27.954Z,8.30
2022-11-02T02:40:02.245Z,8.30
2022-11-02T02:42:35.773Z,8.30
2022-11-02T02:45:13.263Z,8.30
2022-11-02T02:47:48.544Z,8.20
2022-11-02T02:50:21.128Z,8.20
2022-11-02T02:52:51.822Z,8.10
2022-11-02T02:55:24.259Z,8.10
2022-11-02T02:57:54.912Z,8.10
2022-11-02T03:00:25.327Z,8.10
2022-11-02T03:03:02.122Z,8.00
2022-11-02T03:05:33.938Z,7.90
2022-11-02T03:08:06.353Z,7.90
2022-11-02T03:10:42.243Z,7.90
2022-11-02T03:13:29.876Z,7.70
2022-11-02T03:16:04.447Z,7.70
2022-11-02T03:18:43.483Z,7.60
2022-11-02T03:21:26.671Z,7.70
2022-11-02T03:23:59.695Z,7.70
2022-11-02T03:26:33.878Z,7.60
2022-11-02T03:29:07.289Z,7.60
2022-11-02T03:31:39.655Z,7.70
2022-11-02T03:34:18.460Z,7.70
2022-11-02T03:36:50.288Z,7.70
2022-11-02T03:39:23.247Z,7.60
2022-11-02T03:41:54.304Z,7.60
2022-11-02T03:44:26.260Z,7.60
2022-11-02T03:47:00.225Z,7.60
2022-11-02T03:49:30.918Z,7.50
2022-11-02T03:52:05.195Z,7.60
2022-11-02T03:54:42.461Z,7.50
2022-11-02T03:57:31.115Z,7.40
2022-11-02T04:00:08.504Z,7.40
2022-11-02T04:02:39.854Z,7.40
2022-11-02T04:05:08.898Z,7.30
2022-11-02T04:07:56.786Z,7.20
2022-11-02T04:10:27.807Z,7.20
2022-11-02T04:13:13.322Z,7.20
2022-11-02T04:15:41.751Z,7.20
2022-11-02T04:18:28.853Z,7.10
2022-11-02T04:20:57.124Z,7.20
2022-11-02T04:23:42.962Z,7.20
2022-11-02T04:26:11.395Z,7.10
2022-11-02T04:28:39.609Z,7.20
2022-11-02T04:31:07.844Z,7.10
2022-11-02T04:33:36.522Z,7.10
2022-11-02T04:36:09.652Z,7.20
2022-11-02T04:38:42.558Z,7.20
2022-11-02T04:41:29.687Z,7.20
2022-11-02T04:43:58.020Z,7.20
2022-11-02T04:46:28.144Z,7.10
2022-11-02T04:48:57.984Z,7.20
2022-11-02T04:51:30.433Z,7.20
2022-11-02T04:53:59.787Z,7.00
2022-11-02T04:56:31.840Z,7.00
2022-11-02T04:59:01.506Z,7.00
2022-11-02T05:01:31.212Z,7.00
2022-11-02T05:04:01.288Z,7.00
2022-11-02T05:06:29.595Z,7.00
2022-11-02T05:08:57.896Z,7.00
2022-11-02T05:11:26.509Z,7.10
2022-11-02T05:13:55.210Z,7.00
2022-11-02T05:16:23.465Z,7.00
2022-11-02T05:18:51.691Z,7.00
2022-11-02T05:21:21.565Z,7.00
2022-11-02T05:23:49.890Z,7.00
2022-11-02T05:26:18.120Z,7.10
2022-11-02T05:28:46.859Z,7.30
2022-11-02T05:31:15.312Z,7.50
2022-11-02T05:33:43.542Z,7.70
2022-11-02T05:36:17.339Z,7.90
2022-11-02T05:38:47.008Z,8.00
2022-11-02T05:41:15.228Z,8.20
2022-11-02T05:43:43.489Z,8.50
2022-11-02T05:46:14.726Z,8.90
2022-11-02T05:48:43.311Z,9.20
2022-11-02T05:51:11.962Z,9.50
2022-11-02T05:53:40.550Z,9.70
2022-11-02T05:56:13.531Z,9.90
2022-11-02T05:58:42.191Z,10.10
2022-11-02T06:01:19.522Z,10.40
2022-11-02T06:03:53.134Z,10.70
2022-11-02T06:06:22.050Z,11.00
2022-11-02T06:08:50.268Z,11.30
2022-11-02T06:11:20.167Z,11.70
2022-11-02T06:13:51.023Z,12.00
2022-11-02T06:16:22.944Z,12.30
2022-11-02T06:18:54.996Z,12.70
2022-11-02T06:21:23.191Z,13.00
2022-11-02T06:23:51.903Z,13.20
2022-11-02T06:26:22.125Z,13.30
2022-11-02T06:28:50.319Z,13.40
2022-11-02T06:31:18.543Z,13.50
2022-11-02T06:33:47.097Z,13.80
2022-11-02T06:36:15.455Z,14.00
2022-11-02T06:38:46.435Z,14.30
2022-11-02T06:41:15.326Z,14.60
2022-11-02T06:43:45.050Z,14.80
2022-11-02T06:46:13.383Z,15.10
2022-11-02T06:48:41.701Z,15.20
2022-11-02T06:51:09.945Z,15.30
2022-11-02T06:53:38.222Z,15.30
2022-11-02T06:56:07.521Z,15.30
2022-11-02T06:59:02.940Z,15.50
2022-11-02T07:01:32.845Z,15.80
2022-11-02T07:04:01.573Z,16.10
2022-11-02T07:06:29.893Z,16.30
2022-11-02T07:08:58.200Z,16.60
2022-11-02T07:11:26.410Z,16.80
2022-11-02T07:13:54.787Z,17.00
2022-11-02T07:16:25.280Z,17.20
2022-11-02T07:18:53.489Z,17.50
2022-11-02T07:21:22.986Z,17.60
2022-11-02T07:23:52.341Z,17.80
2022-11-02T07:26:33.035Z,18.00
2022-11-02T07:29:27.559Z,18.10
2022-11-02T07:31:57.328Z,18.20
2022-11-02T07:34:25.554Z,18.50
2022-11-02T07:36:54.299Z,18.50
2022-11-02T07:39:22.559Z,18.50
2022-11-02T07:41:52.065Z,18.40
2022-11-02T07:44:20.509Z,18.50
2022-11-02T07:46:48.870Z,18.50
2022-11-02T07:49:21.499Z,18.70
2022-11-02T07:51:50.222Z,18.90
2022-11-02T07:54:18.488Z,19.00
2022-11-02T07:56:46.948Z,19.00
2022-11-02T07:59:15.298Z,19.20
2022-11-02T08:01:43.689Z,19.10
2022-11-02T08:04:12.157Z,19.30
2022-11-02T08:06:41.861Z,19.30
2022-11-02T08:09:10.372Z,19.30
2022-11-02T08:11:38.660Z,19.20
2022-11-02T08:14:08.629Z,19.30
2022-11-02T08:16:36.908Z,19.50
2022-11-02T08:19:05.167Z,19.60
2022-11-02T08:21:46.885Z,19.80
2022-11-02T08:24:15.152Z,20.00
2022-11-02T08:26:45.377Z,20.10
2022-11-02T08:29:15.184Z,20.20
2022-11-02T08:31:43.420Z,20.60
2022-11-02T08:34:23.971Z,20.80
2022-11-02T08:37:22.781Z,21.10
2022-11-02T08:39:51.414Z,21.40
2022-11-02T08:42:19.600Z,21.60
2022-11-02T08:45:02.949Z,21.40
2022-11-02T08:47:31.252Z,21.40
2022-11-02T08:50:12.350Z,21.30
2022-11-02T08:52:42.050Z,21.30
2022-11-02T08:55:10.785Z,21.40
2022-11-02T08:57:46.640Z,21.40
2022-11-02T09:00:16.067Z,21.60
2022-11-02T09:03:10.009Z,22.00
2022-11-02T09:05:39.707Z,22.20
2022-11-02T09:08:13.251Z,22.10
2022-11-02T09:10:42.225Z,22.20
2022-11-02T09:13:16.389Z,22.20
2022-11-02T09:15:44.612Z,22.50
2022-11-02T09:18:12.900Z,22.70
2022-11-02T09:20:41.194Z,22.80
2022-11-02T09:23:10.852Z,22.80
2022-11-02T09:25:39.141Z,23.10
2022-11-02T09:28:09.117Z,23.20
2022-11-02T09:30:37.732Z,23.30
2022-11-02T09:33:08.109Z,23.40
2022-11-02T09:35:38.956Z,23.50
2022-11-02T09:38:08.134Z,23.50
2022-11-02T09:40:40.507Z,23.70
2022-11-02T09:43:19.272Z,23.90
2022-11-02T09:45:59.176Z,23.90
2022-11-02T09:48:31.710Z,23.90
2022-11-02T09:51:06.708Z,23.70
2022-11-02T09:54:02.599Z,23.70
2022-11-02T09:56:33.132Z,23.70
2022-11-02T09:59:05.191Z,23.90
2022-11-02T10:01:45.147Z,24.00
2022-11-02T10:04:43.212Z,23.90
2022-11-02T10:07:20.141Z,23.90
2022-11-02T10:10:00.839Z,23.90
2022-11-02T10:12:39.752Z,23.90
2022-11-02T10:15:16.823Z,23.70
2022-11-02T10:17:47.828Z,23.70
2022-11-02T10:20:26.159Z,23.70
2022-11-02T10:22:58.651Z,23.70
2022-11-02T10:25:27.479Z,23.70
2022-11-02T10:28:04.482Z,23.80
2022-11-02T10:30:33.777Z,24.00
2022-11-02T10:33:02.195Z,24.10
2022-11-02T10:35:57.685Z,24.20
2022-11-02T10:38:39.237Z,24.50
2022-11-02T10:41:20.692Z,24.50
2022-11-02T10:44:09.160Z,24.60
2022-11-02T10:46:50.817Z,24.60
2022-11-02T10:49:32.843Z,24.60
2022-11-02T10:52:01.405Z,24.70
2022-11-02T10:54:33.426Z,24.80
2022-11-02T10:57:12.825Z,25.00
2022-11-02T10:59:42.512Z,25.10
2022-11-02T11:02:14.606Z,25.10
2022-11-02T11:04:44.053Z,25.10
2022-11-02T11:07:17.722Z,25.10
2022-11-02T11:09:52.940Z,25.10
2022-11-02T11:12:25.697Z,25.00
2022-11-02T11:21:01.805Z,25.30
2022-11-02T11:23:30.259Z,25.30
2022-11-02T11:26:28.757Z,25.40
2022-11-02T11:28:58.216Z,25.30
2022-11-02T11:31:28.094Z,25.50
2022-11-02T11:33:58.332Z,25.50
2022-11-02T11:36:30.638Z,25.50
2022-11-02T11:39:01.334Z,25.60
2022-11-02T11:41:30.790Z,25.50
2022-11-02T11:43:59.989Z,25.50
2022-11-02T11:46:43.744Z,25.60
2022-11-02T11:49:35.930Z,25.60
2022-11-02T11:52:18.810Z,25.50
2022-11-02T11:54:55.219Z,25.50
2022-11-02T11:58:05.358Z,25.60
2022-11-02T12:00:39.912Z,25.60
2022-11-02T12:03:14.301Z,25.60
2022-11-02T12:05:56.059Z,25.60
2022-11-02T12:08:44.503Z,25.60
2022-11-02T12:11:27.730Z,25.60
2022-11-02T12:14:14.226Z,25.60
2022-11-02T12:17:01.954Z,25.60
2022-11-02T12:19:40.191Z,25.50
2022-11-02T12:22:19.125Z,25.50
2022-11-02T12:25:17.440Z,25.50
2022-11-02T12:27:54.257Z,25.60
2022-11-02T12:30:26.100Z,25.50
2022-11-02T12:33:26.838Z,25.50
2022-11-02T12:36:18.592Z,25.40
2022-11-02T12:39:08.486Z,25.40
2022-11-02T12:41:47.558Z,25.40
2022-11-02T12:44:31.196Z,25.40
2022-11-02T12:47:11.126Z,25.40
2022-11-02T12:49:47.657Z,25.40
2022-11-02T12:52:31.450Z,25.30
2022-11-02T12:55:17.112Z,25.30
2022-11-02T12:57:46.614Z,25.30
2022-11-02T13:00:21.057Z,25.30
2022-11-02T13:02:58.914Z,25.20
2022-11-02T13:05:31.075Z,25.20
2022-11-02T13:08:08.487Z,25.20
2022-11-02T13:10:45.524Z,25.10
2022-11-02T13:13:19.108Z,25.20
2022-11-02T13:15:50.220Z,25.10
2022-11-02T13:18:23.692Z,25.10
2022-11-02T13:20:55.116Z,25.00
2022-11-02T13:23:51.902Z,24.90
2022-11-02T13:26:28.639Z,24.90
2022-11-02T13:29:00.861Z,24.90
2022-11-02T13:31:31.956Z,24.80
2022-11-02T13:34:03.787Z,24.70
2022-11-02T13:36:32.921Z,24.70
2022-11-02T13:39:07.048Z,24.70
2022-11-02T13:41:51.120Z,24.80
2022-11-02T13:44:31.973Z,24.80
2022-11-02T13:47:15.046Z,24.70
2022-11-02T13:49:45.992Z,24.60
2022-11-02T13:52:17.007Z,24.60
2022-11-02T13:54:50.887Z,24.50
2022-11-02T13:57:32.661Z,24.50
2022-11-02T14:00:02.294Z,24.40
2022-11-02T14:02:33.193Z,24.40
2022-11-02T14:05:02.712Z,24.30
2022-11-02T14:07:34.907Z,24.20
2022-11-02T14:10:09.748Z,24.10
2022-11-02T14:12:46.032Z,24.00
2022-11-02T14:15:42.426Z,23.90
2022-11-02T14:18:35.928Z,23.80
2022-11-02T14:21:40.980Z,23.60
2022-11-02T14:24:54.049Z,23.50
2022-11-02T14:27:46.470Z,23.30
2022-11-02T14:30:45.727Z,23.20
2022-11-02T14:33:53.032Z,23.00
2022-11-02T14:36:40.392Z,22.80
2022-11-02T14:39:20.954Z,22.70
2022-11-02T14:42:13.218Z,22.50
2022-11-02T14:45:13.210Z,22.30
2022-11-02T14:48:07.519Z,22.10
2022-11-02T14:50:35.907Z,21.90
2022-11-02T14:53:08.215Z,21.70
2022-11-02T14:55:38.508Z,21.60
2022-11-02T14:58:16.445Z,21.40
2022-11-02T15:01:00.535Z,21.20
2022-11-02T15:03:34.891Z,21.00
2022-11-02T15:06:06.269Z,20.90
2022-11-02T15:08:36.753Z,20.70
2022-11-02T15:11:42.188Z,20.50
2022-11-02T15:14:52.922Z,20.30
2022-11-02T15:17:54.624Z,20.10
2022-11-02T15:20:29.173Z,19.90
2022-11-02T15:23:09.147Z,19.80
2022-11-02T15:25:41.819Z,19.70
2022-11-02T15:28:15.508Z,19.60
2022-11-02T15:30:46.742Z,19.50
2022-11-02T15:33:35.981Z,19.30
2022-11-02T15:36:07.539Z,19.30
2022-11-02T15:38:40.503Z,19.20
2022-11-02T15:41:22.420Z,19.20
2022-11-02T15:44:11.947Z,19.20
2022-11-02T15:46:53.565Z,19.10
2022-11-02T15:49:38.809Z,18.90
2022-11-02T15:52:15.095Z,18.60
2022-11-02T15:54:58.516Z,18.40
2022-11-02T15:57:38.484Z,18.10
2022-11-02T16:00:18.408Z,17.90
2022-11-02T16:02:49.638Z,17.60
2022-11-02T16:05:23.555Z,17.40
2022-11-02T16:08:20.847Z,17.20
2022-11-02T16:10:43.203Z,17.10
2022-11-02T16:13:17.427Z,16.90
2022-11-02T16:15:46.382Z,16.70
2022-11-02T16:18:25.616Z,16.60
2022-11-02T16:20:59.618Z,16.50
2022-11-02T16:23:30.269Z,16.40
2022-11-02T16:26:00.707Z,16.30
2022-11-02T16:28:30.931Z,16.30
2022-11-02T16:31:00.656Z,16.20
2022-11-02T16:33:32.167Z,16.20
2022-11-02T16:36:02.843Z,16.10
2022-11-02T16:38:32.092Z,16.10
2022-11-02T16:41:02.562Z,16.10
2022-11-02T16:43:31.987Z,16.00
2022-11-02T16:46:04.286Z,16.00
2022-11-02T16:48:34.204Z,16.00
2022-11-02T16:51:18.547Z,16.00
2022-11-02T16:53:46.856Z,16.00
2022-11-02T16:56:27.640Z,15.90
2022-11-02T16:59:01.356Z,15.90
2022-11-02T17:01:35.330Z,15.90
2022-11-02T17:04:19.760Z,15.80
2022-11-02T17:06:51.689Z,15.80
2022-11-02T17:09:26.197Z,15.70
2022-11-02T17:11:57.121Z,15.70
2022-11-02T17:14:26.491Z,15.70
2022-11-02T17:17:06.748Z,15.60
2022-11-02T17:19:46.726Z,15.60
2022-11-02T17:22:24.166Z,15.60
2022-11-02T17:25:09.899Z,15.50
2022-11-02T17:27:42.114Z,15.50
2022-11-02T17:30:42.087Z,15.50
2022-11-02T17:33:33.414Z,15.40
2022-11-02T17:36:07.087Z,15.30
2022-11-02T17:38:37.151Z,15.30
2022-11-02T17:41:26.244Z,15.30
2022-11-02T17:43:53.537Z,15.20
2022-11-02T17:46:21.960Z,15.10
2022-11-02T17:48:50.233Z,15.10
2022-11-02T17:51:22.179Z,15.00
2022-11-02T17:53:52.271Z,14.90
2022-11-02T17:56:20.526Z,14.90
2022-11-02T17:58:48.803Z,14.90
2022-11-02T18:01:18.330Z,15.00
2022-11-02T18:03:46.636Z,15.10
2022-11-02T18:06:14.936Z,15.00
2022-11-02T18:09:00.467Z,15.10
2022-11-02T18:11:30.792Z,15.20
2022-11-02T18:13:59.349Z,15.10
2022-11-02T18:16:28.254Z,15.10
2022-11-02T18:18:56.531Z,15.10
2022-11-02T18:21:24.968Z,15.10
2022-11-02T18:23:53.268Z,15.10
2022-11-02T18:26:21.577Z,15.10
2022-11-02T18:28:51.179Z,15.10
2022-11-02T18:31:19.593Z,15.10
2022-11-02T18:33:48.054Z,15.20
2022-11-02T18:36:16.446Z,15.10
2022-11-02T18:38:44.628Z,15.20
2022-11-02T18:41:31.079Z,15.20
2022-11-02T18:44:06.631Z,15.20
2022-11-02T18:46:37.970Z,15.20
2022-11-02T18:49:06.301Z,15.10
2022-11-02T18:51:34.860Z,15.20
2022-11-02T18:54:05.027Z,15.20
2022-11-02T18:56:33.265Z,15.20
2022-11-02T18:59:03.571Z,15.30
2022-11-02T19:01:31.958Z,15.30
2022-11-02T19:04:01.537Z,15.40
2022-11-02T19:06:49.293Z,15.50
2022-11-02T19:09:21.453Z,15.50
2022-11-02T19:11:53.454Z,15.60
2022-11-02T19:14:24.769Z,15.60
2022-11-02T19:16:53.099Z,15.60
2022-11-02T19:19:21.675Z,15.70
2022-11-02T19:21:50.000Z,15.70
2022-11-02T19:24:18.427Z,15.80
2022-11-02T19:26:46.600Z,15.80
2022-11-02T19:29:15.182Z,15.80
2022-11-02T19:31:45.223Z,15.90
2022-11-02T19:34:39.317Z,15.90
2022-11-02T19:37:08.543Z,15.90
2022-11-02T19:39:36.957Z,15.90
2022-11-02T19:42:07.644Z,15.90
2022-11-02T19:44:42.239Z,16.00
2022-11-02T19:47:12.519Z,16.00
2022-11-02T19:49:40.815Z,16.00
2022-11-02T19:52:09.117Z,16.10
2022-11-02T19:54:37.579Z,16.20
2022-11-02T19:57:05.889Z,16.20
2022-11-02T19:59:34.585Z,16.30
2022-11-02T20:02:02.904Z,16.30
2022-11-02T20:04:38.050Z,16.30
2022-11-02T20:07:23.424Z,16.30
2022-11-02T20:09:53.453Z,16.30
2022-11-02T20:12:24.029Z,16.30
2022-11-02T20:14:52.296Z,16.30
2022-11-02T20:17:52.029Z,16.20
2022-11-02T20:20:10.916Z,16.20
2022-11-02T20:22:39.250Z,16.30
2022-11-02T20:25:08.870Z,16.30
2022-11-02T20:27:37.294Z,16.20
2022-11-02T20:30:05.965Z,16.20
2022-11-02T20:32:34.356Z,16.10
2022-11-02T20:35:02.602Z,16.10
2022-11-02T20:37:35.020Z,16.20
2022-11-02T20:40:03.242Z,16.20
2022-11-02T20:42:31.647Z,16.10
2022-11-02T20:45:00.001Z,16.00
2022-11-02T20:47:28.414Z,16.00
2022-11-02T20:49:56.627Z,16.00
2022-11-02T20:52:25.009Z,15.90
2022-11-02T20:54:54.740Z,15.90
2022-11-02T20:57:23.262Z,15.90
2022-11-02T20:59:51.591Z,15.80
2022-11-02T21:02:22.230Z,15.80
2022-11-02T21:04:50.944Z,15.80
2022-11-02T21:07:19.262Z,15.80
2022-11-02T21:09:47.444Z,15.80
2022-11-02T21:12:34.862Z,15.70
2022-11-02T21:15:03.479Z,15.70
2022-11-02T21:17:31.880Z,15.60
2022-11-02T21:20:14.105Z,15.50
2022-11-02T21:22:51.198Z,15.50
2022-11-02T21:25:19.626Z,15.50
2022-11-02T21:27:51.820Z,15.40
2022-11-02T21:30:20.798Z,15.40
2022-11-02T21:32:51.605Z,15.30
2022-11-02T21:35:19.963Z,15.30
2022-11-02T21:37:48.220Z,15.30
2022-11-02T21:40:16.649Z,15.20
2022-11-02T21:42:44.839Z,15.20
2022-11-02T21:45:17.979Z,15.10
2022-11-02T21:47:46.783Z,15.10
2022-11-02T21:50:15.000Z,15.00
2022-11-02T21:52:45.215Z,15.00
2022-11-02T21:55:13.863Z,15.00
2022-11-02T21:57:42.058Z,15.00
2022-11-02T22:00:11.735Z,15.00
2022-11-02T22:02:46.368Z,15.00
2022-11-02T22:05:34.760Z,15.00
2022-11-02T22:08:20.276Z,15.00
2022-11-02T22:10:48.852Z,15.00
2022-11-02T22:13:34.951Z,15.00
2022-11-02T22:16:11.167Z,15.10
2022-11-02T22:18:40.813Z,15.20
2022-11-02T22:21:09.058Z,15.30
2022-11-02T22:23:37.416Z,15.40
2022-11-02T22:26:07.681Z,15.60
2022-11-02T22:28:37.815Z,15.70
2022-11-02T22:31:07.622Z,15.70
2022-11-02T22:34:03.406Z,15.70
2022-11-02T22:36:33.391Z,15.60
2022-11-02T22:39:02.323Z,15.60
2022-11-02T22:41:32.651Z,15.50
2022-11-02T22:44:03.642Z,15.50
2022-11-02T22:46:34.641Z,15.50
2022-11-02T22:49:05.603Z,15.60
2022-11-02T22:51:35.970Z,15.60
2022-11-02T22:54:05.964Z,15.70
2022-11-02T22:56:35.198Z,15.70
2022-11-02T22:59:04.327Z,15.70
2022-11-02T23:01:34.069Z,15.80
2022-11-02T23:04:04.290Z,16.00
2022-11-02T23:06:33.096Z,16.00
2022-11-02T23:09:02.291Z,16.00
2022-11-02T23:11:32.337Z,16.00
2022-11-02T23:14:02.549Z,16.00
2022-11-02T23:16:36.290Z,16.00
2022-11-02T23:19:27.805Z,16.00
2022-11-02T23:22:16.200Z,16.00
2022-11-02T23:25:03.613Z,16.00
2022-11-02T23:27:32.980Z,16.10
2022-11-02T23:30:30.612Z,16.10
2022-11-02T23:32:58.881Z,16.00
2022-11-02T23:35:45.748Z,16.00
2022-11-02T23:38:13.986Z,16.00
2022-11-02T23:40:42.283Z,15.90
2022-11-02T23:43:35.316Z,15.90
2022-11-02T23:46:03.531Z,15.80
2022-11-02T23:48:31.821Z,15.70
2022-11-02T23:51:18.924Z,15.70
2022-11-02T23:54:04.322Z,15.60
2022-11-02T23:56:44.100Z,15.50
2022-11-02T23:59:12.627Z,15.50
